createdAt,value
2022-11-30T00:00:13.448Z,2.00
2022-11-30T00:05:21.395Z,1.70
2022-11-30T00:10:28.574Z,2.30
2022-11-30T00:15:36.901Z,1.90
2022-11-30T00:20:43.956Z,2.50
2022-11-30T00:25:50.996Z,2.17
2022-11-30T00:31:01.347Z,1.97
2022-11-30T00:36:11.467Z,1.50
2022-11-30T00:41:19.645Z,1.50
2022-11-30T00:46:26.924Z,1.30
2022-11-30T00:51:34.103Z,1.40
2022-11-30T00:56:41.138Z,1.70
2022-11-30T01:01:48.261Z,1.87
2022-11-30T01:06:55.241Z,3.30
2022-11-30T01:12:02.662Z,4.40
2022-11-30T01:17:09.643Z,4.07
2022-11-30T01:22:17.802Z,1.40
2022-11-30T01:27:25.000Z,1.10
2022-11-30T01:32:33.234Z,1.17
2022-11-30T01:37:40.464Z,1.10
2022-11-30T01:42:49.144Z,1.30
2022-11-30T01:47:58.183Z,1.00
2022-11-30T01:53:08.211Z,1.03
2022-11-30T01:58:18.084Z,1.00
2022-11-30T02:03:27.474Z,0.93
2022-11-30T02:08:35.557Z,1.00
2022-11-30T02:13:45.165Z,1.17
2022-11-30T02:18:55.143Z,1.10
2022-11-30T02:24:05.302Z,1.10
2022-11-30T02:29:15.524Z,1.30
2022-11-30T02:34:24.988Z,1.10
2022-11-30T02:39:32.121Z,1.20
2022-11-30T02:44:39.599Z,1.10
2022-11-30T02:49:48.539Z,1.20
2022-11-30T02:54:58.501Z,1.10
2022-11-30T03:00:08.317Z,1.20
2022-11-30T03:05:15.487Z,1.10
2022-11-30T03:10:23.067Z,1.20
2022-11-30T03:15:31.156Z,1.00
2022-11-30T03:20:41.440Z,1.10
2022-11-30T03:25:48.352Z,1.10
2022-11-30T03:30:55.681Z,1.13
2022-11-30T03:36:05.872Z,1.00
2022-11-30T03:41:16.585Z,1.20
2022-11-30T03:46:23.913Z,1.30
2022-11-30T03:51:31.678Z,1.30
2022-11-30T03:56:38.672Z,1.10
2022-11-30T04:01:46.700Z,1.20
2022-11-30T04:06:54.373Z,1.20
2022-11-30T04:12:01.344Z,1.30
2022-11-30T04:17:09.823Z,1.20
2022-11-30T04:22:16.845Z,1.50
2022-11-30T04:27:23.723Z,1.27
2022-11-30T04:32:30.844Z,1.47
2022-11-30T04:37:37.822Z,1.40
2022-11-30T04:42:44.699Z,1.53
2022-11-30T04:47:51.703Z,1.30
2022-11-30T04:52:59.012Z,1.40
2022-11-30T04:58:07.762Z,1.40
2022-11-30T05:03:14.840Z,1.40
2022-11-30T05:08:21.999Z,1.17
2022-11-30T05:13:28.901Z,1.10
2022-11-30T05:18:36.054Z,1.20
2022-11-30T05:23:43.062Z,1.10
2022-11-30T05:28:50.515Z,1.10
2022-11-30T05:33:57.654Z,1.00
2022-11-30T05:39:05.016Z,0.90
2022-11-30T05:44:12.216Z,0.90
2022-11-30T05:49:19.950Z,1.00
2022-11-30T05:54:26.907Z,0.90
2022-11-30T05:59:33.957Z,0.90
2022-11-30T06:04:40.987Z,0.87
2022-11-30T06:09:47.858Z,0.80
2022-11-30T06:14:54.997Z,0.80
2022-11-30T06:20:01.885Z,0.80
2022-11-30T06:25:09.431Z,0.83
2022-11-30T06:30:16.676Z,1.10
2022-11-30T06:35:23.863Z,1.07
2022-11-30T06:40:31.136Z,1.20
2022-11-30T06:45:37.887Z,1.20
2022-11-30T06:50:49.838Z,1.33
2022-11-30T06:55:53.788Z,1.20
2022-11-30T07:01:00.876Z,1.30
2022-11-30T07:06:10.376Z,1.27
2022-11-30T07:11:17.744Z,0.90
2022-11-30T07:16:26.100Z,1.10
2022-11-30T07:21:33.072Z,1.00
2022-11-30T07:26:40.023Z,0.90
2022-11-30T07:31:49.968Z,1.00
2022-11-30T07:36:56.984Z,1.00
2022-11-30T07:42:03.947Z,1.10
2022-11-30T07:47:11.382Z,1.10
2022-11-30T07:52:18.431Z,1.00
2022-11-30T07:57:25.244Z,1.20
2022-11-30T08:02:32.163Z,1.03
2022-11-30T08:07:38.971Z,1.10
2022-11-30T08:12:45.901Z,1.20
2022-11-30T08:17:54.489Z,0.97
2022-11-30T08:23:01.622Z,1.20
2022-11-30T08:28:08.944Z,1.13
2022-11-30T08:33:16.189Z,1.10
2022-11-30T08:38:23.017Z,1.20
2022-11-30T08:43:30.310Z,1.03
2022-11-30T08:48:37.523Z,1.13
2022-11-30T08:53:44.358Z,1.00
2022-11-30T08:58:51.873Z,1.00
2022-11-30T09:04:01.871Z,0.90
2022-11-30T09:09:08.691Z,1.00
2022-11-30T09:14:16.861Z,0.70
2022-11-30T09:19:24.032Z,1.00
2022-11-30T09:24:30.879Z,1.00
2022-11-30T09:29:38.357Z,1.00
2022-11-30T09:34:45.754Z,0.90
2022-11-30T09:39:53.188Z,1.10
2022-11-30T09:45:03.144Z,0.80
2022-11-30T09:50:12.929Z,1.10
2022-11-30T09:55:22.844Z,0.93
2022-11-30T10:00:30.017Z,1.00
2022-11-30T10:05:41.403Z,1.10
2022-11-30T10:10:51.544Z,1.03
2022-11-30T10:15:59.505Z,1.10
2022-11-30T10:21:09.702Z,1.10
2022-11-30T10:26:17.940Z,1.00
2022-11-30T10:31:27.748Z,1.20
2022-11-30T10:36:37.622Z,0.90
2022-11-30T10:41:47.517Z,1.10
2022-11-30T10:46:57.376Z,1.10
2022-11-30T10:52:07.247Z,1.30
2022-11-30T10:57:15.645Z,1.13
2022-11-30T11:02:25.806Z,1.10
2022-11-30T11:07:33.417Z,1.17
2022-11-30T11:12:42.920Z,1.30
2022-11-30T11:17:50.748Z,1.30
2022-11-30T11:22:58.041Z,1.50
2022-11-30T11:28:08.588Z,1.70
2022-11-30T11:33:15.231Z,1.27
2022-11-30T11:38:25.073Z,1.30
2022-11-30T11:43:34.952Z,1.43
2022-11-30T11:48:45.070Z,1.40
2022-11-30T11:53:54.102Z,1.40
2022-11-30T11:59:04.215Z,1.50
2022-11-30T12:04:14.193Z,1.40
2022-11-30T12:09:24.421Z,1.50
2022-11-30T12:14:33.775Z,1.57
2022-11-30T12:19:43.522Z,1.50
2022-11-30T12:24:52.415Z,1.50
2022-11-30T12:30:01.641Z,1.30
2022-11-30T12:35:12.354Z,1.30
2022-11-30T12:40:20.673Z,1.50
2022-11-30T12:45:30.883Z,1.37
2022-11-30T12:50:40.798Z,1.50
2022-11-30T12:55:50.995Z,1.63
2022-11-30T13:01:01.564Z,1.50
2022-11-30T13:06:11.542Z,1.43
2022-11-30T13:11:21.338Z,1.63
2022-11-30T13:16:30.222Z,1.80
2022-11-30T13:21:40.103Z,1.70
2022-11-30T13:26:49.802Z,1.50
2022-11-30T13:32:00.652Z,1.50
2022-11-30T13:37:10.242Z,1.43
2022-11-30T13:42:19.512Z,1.47
2022-11-30T13:47:30.540Z,1.47
2022-11-30T13:52:40.280Z,1.70
2022-11-30T13:57:46.502Z,1.50
2022-11-30T14:02:54.580Z,1.60
2022-11-30T14:08:01.698Z,1.90
2022-11-30T14:13:10.514Z,1.67
2022-11-30T14:18:21.938Z,1.80
2022-11-30T14:23:31.721Z,1.70
2022-11-30T14:28:41.540Z,1.73
2022-11-30T14:33:50.692Z,1.50
2022-11-30T14:38:57.942Z,1.80
2022-11-30T14:44:07.759Z,1.77
2022-11-30T14:49:17.469Z,1.70
2022-11-30T14:54:28.375Z,1.70
2022-11-30T14:59:38.188Z,1.73
2022-11-30T15:04:45.072Z,1.60
2022-11-30T15:09:54.906Z,1.70
2022-11-30T15:15:04.946Z,1.73
2022-11-30T15:20:14.869Z,1.70
2022-11-30T15:25:24.460Z,1.73
2022-11-30T15:30:32.354Z,1.63
2022-11-30T15:36:12.130Z,1.60
2022-11-30T15:40:53.935Z,1.97
2022-11-30T15:46:00.867Z,1.80
2022-11-30T15:51:09.959Z,2.20
2022-11-30T15:56:19.824Z,2.20
2022-11-30T16:01:27.151Z,2.03
2022-11-30T16:06:37.182Z,2.00
2022-11-30T16:11:44.190Z,2.20
2022-11-30T16:16:53.139Z,2.43
2022-11-30T16:22:00.256Z,2.10
2022-11-30T16:27:10.267Z,2.03
2022-11-30T16:32:18.398Z,2.30
2022-11-30T16:37:25.413Z,2.00
2022-11-30T16:42:33.067Z,2.03
2022-11-30T16:47:40.194Z,1.60
2022-11-30T16:52:50.225Z,1.60
2022-11-30T16:57:57.066Z,1.47
2022-11-30T17:03:08.762Z,1.50
2022-11-30T17:08:15.716Z,1.60
2022-11-30T17:13:22.994Z,1.50
2022-11-30T17:18:29.895Z,1.50
2022-11-30T17:23:37.000Z,1.60
2022-11-30T17:28:44.107Z,2.00
2022-11-30T17:33:51.304Z,1.80
2022-11-30T17:38:58.174Z,1.80
2022-11-30T17:44:05.480Z,1.40
2022-11-30T17:49:12.269Z,1.50
2022-11-30T17:54:19.390Z,1.60
2022-11-30T17:59:26.670Z,1.60
2022-11-30T18:04:33.725Z,2.00
2022-11-30T18:09:42.768Z,1.10
2022-11-30T18:14:51.285Z,1.17
2022-11-30T18:19:58.359Z,1.20
2022-11-30T18:25:05.340Z,1.10
2022-11-30T18:30:12.582Z,1.40
2022-11-30T18:35:19.441Z,1.23
2022-11-30T18:40:26.365Z,1.40
2022-11-30T18:45:34.052Z,1.30
2022-11-30T18:50:41.315Z,1.30
2022-11-30T18:55:48.275Z,1.30
2022-11-30T19:00:55.216Z,1.70
2022-11-30T19:06:04.672Z,1.27
2022-11-30T19:11:12.754Z,1.30
2022-11-30T19:16:19.720Z,1.33
2022-11-30T19:21:27.878Z,1.20
2022-11-30T19:26:34.675Z,1.33
2022-11-30T19:31:41.623Z,1.20
2022-11-30T19:36:49.335Z,1.30
2022-11-30T19:41:56.430Z,1.23
2022-11-30T19:47:03.730Z,1.20
2022-11-30T19:52:10.515Z,1.50
2022-11-30T19:57:17.641Z,1.23
2022-11-30T20:02:24.613Z,1.30
2022-11-30T20:07:31.672Z,1.30
2022-11-30T20:12:39.001Z,1.20
2022-11-30T20:17:46.116Z,1.10
2022-11-30T20:22:53.145Z,1.33
2022-11-30T20:28:00.580Z,1.20
2022-11-30T20:33:07.429Z,1.27
2022-11-30T20:38:15.468Z,1.20
2022-11-30T20:43:22.466Z,1.20
2022-11-30T20:48:30.000Z,1.20
2022-11-30T20:53:37.419Z,1.40
2022-11-30T20:58:46.220Z,1.20
2022-11-30T21:03:53.598Z,1.40
2022-11-30T21:09:01.202Z,1.33
2022-11-30T21:14:08.607Z,1.30
2022-11-30T21:19:16.049Z,1.20
2022-11-30T21:24:23.060Z,1.60
2022-11-30T21:29:30.126Z,1.30
2022-11-30T21:34:37.041Z,1.30
2022-11-30T21:39:43.997Z,1.30
2022-11-30T21:44:51.222Z,1.30
2022-11-30T21:49:59.986Z,1.50
2022-11-30T21:55:07.327Z,1.27
2022-11-30T22:00:14.923Z,1.20
2022-11-30T22:05:21.876Z,1.40
2022-11-30T22:10:29.941Z,1.60
2022-11-30T22:15:36.902Z,1.40
2022-11-30T22:20:43.989Z,1.40
2022-11-30T22:25:50.971Z,1.37
2022-11-30T22:30:57.962Z,1.37
2022-11-30T22:36:08.040Z,1.27
2022-11-30T22:41:17.673Z,1.47
2022-11-30T22:46:27.360Z,1.37
2022-11-30T22:51:36.506Z,1.40
2022-11-30T22:56:43.398Z,1.03
2022-11-30T23:01:51.948Z,1.30
2022-11-30T23:06:58.829Z,1.20
2022-11-30T23:12:05.801Z,1.40
2022-11-30T23:17:14.288Z,1.40
2022-11-30T23:22:21.276Z,1.20
2022-11-30T23:27:28.671Z,1.40
2022-11-30T23:32:35.621Z,1.30
2022-11-30T23:37:42.460Z,1.20
2022-11-30T23:42:49.396Z,1.40
2022-11-30T23:47:56.257Z,1.50
2022-11-30T23:53:03.238Z,1.23
2022-11-30T23:58:10.181Z,1.20
